METAR AND TAF INFORMATION
METAR FOR CYBQ
ADDS - METARS form results

(1134 UTC 08 August 2020)
Data provider http://aviationweather.gov/metar/data/
 
METAR text: CYBQ 081100Z AUTO 12010KT 9SM SCT039 16/15 A2966 RMK SLP051 DENSITY ALT 1500FT
Conditions at: CYBQ (TADOULE LAKE , MB, CA) observed 1100 UTC 08 August 2020
Temperature: 16.0°C (61°F)
Dewpoint: 15.0°C (59°F) [RH = 94%]
Pressure (altimeter): 29.66 inches Hg (1004.5 mb)
[Sea-level pressure: 1005.1 mb]
Winds: from the ESE (120 degrees) at 12 MPH (10 knots; 5.1 m/s)
Visibility: 9 miles (14 km)
Ceiling: at least 12,000 feet AGL
Clouds: scattered clouds at 3900 feet AGL
Weather: no significant weather observed at this time

 AIRPORT MAP

 RUNWAY INFORMATION
Runway 06 Runway length 3200 ft Runway width 100 ft
Runway elevation 0 ft Runway displaced threshold 0 ft Runway heading 0
Runway 24 Runway length 3200 ft Runway width 100 ft
Runway elevation 0 ft Runway displaced threshold 0 ft Runway heading 0
Runway 07 Runway length 0 ft Runway width 0 ft
Runway elevation 923 ft Runway displaced threshold 0 ft Runway heading 0
Runway 25 Runway length 0 ft Runway width 0 ft
Runway elevation 872 ft Runway displaced threshold 0 ft Runway heading 0

 AIRPORT FREQUENCIES

 AIRPORT NEAR NAVIGATION AIDS
Type NDB Name Tadoule Lake Frequency 389 KHZ



Powered by Virtual Airlines Manager [v2.6.2]